Santa Barbara, California
Current Conditions -  °F | °C
As of 3:53 AM on Monday 20 Oct 2014 (Local Time) from KSBA Reporting Station
Clear Clear  
Wind Chill: 14°   Ceiling: Unl
Heat Index: 14°   Visibility: 10mi
Dew Point: 13°   Wind: 0mph
Humidity: 90%   Direction: NA
Pressure: 29.87"   Gusts: NA
Location:  34.42°N, 119.69°W
Report Text: KSBA 201053Z 00000KT 10SM CLR 14/13 A2987 RMK AO2 SLP116 T01440128
Loading
Personal Weather Stations






























Interactive Weather Map
Tropical Storm Tracking
New forecast layout! Learn more

10-Day Weather Forecast

Advertisements
Track Severe Weather on mobile